createdAt,value
2017-12-04T00:00:57.972Z,20.83
2017-12-04T00:03:26.241Z,20.23
2017-12-04T00:05:54.511Z,23.17
2017-12-04T00:08:22.794Z,21.20
2017-12-04T00:10:51.080Z,23.17
2017-12-04T00:13:19.391Z,24.77
2017-12-04T00:15:46.887Z,23.30
2017-12-04T00:18:14.398Z,21.25
2017-12-04T00:20:41.909Z,24.92
2017-12-04T00:23:09.874Z,24.42
2017-12-04T00:25:37.401Z,24.58
2017-12-04T00:28:04.908Z,22.98
2017-12-04T00:30:33.217Z,26.25
2017-12-04T00:33:00.727Z,26.55
2017-12-04T00:35:28.255Z,22.62
2017-12-04T00:37:55.767Z,24.50
2017-12-04T00:40:24.045Z,25.13
2017-12-04T00:42:52.361Z,23.45
2017-12-04T00:45:19.882Z,25.13
2017-12-04T00:47:48.149Z,24.15
2017-12-04T00:50:15.668Z,24.48
2017-12-04T00:52:43.264Z,25.90
2017-12-04T00:55:10.810Z,25.17
2017-12-04T00:57:38.335Z,25.92
2017-12-04T01:00:05.844Z,26.08
2017-12-04T01:02:33.387Z,27.47
2017-12-04T01:05:00.907Z,27.17
2017-12-04T01:07:28.501Z,27.67
2017-12-04T01:09:56.152Z,28.55
2017-12-04T01:12:23.671Z,29.30
2017-12-04T01:14:51.983Z,29.00
2017-12-04T01:17:19.512Z,29.48
2017-12-04T01:19:47.122Z,28.73
2017-12-04T01:22:14.648Z,26.40
2017-12-04T01:24:42.146Z,28.42
2017-12-04T01:27:09.718Z,28.45
2017-12-04T01:29:37.305Z,28.75
2017-12-04T01:32:05.594Z,25.23
2017-12-04T01:34:33.099Z,26.27
2017-12-04T01:37:00.707Z,26.80
2017-12-04T01:39:28.274Z,24.80
2017-12-04T01:41:55.796Z,29.33
2017-12-04T01:44:23.391Z,24.90
2017-12-04T01:46:50.903Z,26.15
2017-12-04T01:49:18.457Z,25.30
2017-12-04T01:51:45.968Z,21.23
2017-12-04T01:54:13.481Z,27.98
2017-12-04T01:56:41.036Z,27.52
2017-12-04T01:59:08.537Z,25.97
2017-12-04T02:01:36.793Z,26.27
2017-12-04T02:04:04.334Z,26.95
2017-12-04T02:06:31.854Z,27.35
2017-12-04T02:08:59.366Z,26.45
2017-12-04T02:11:26.887Z,28.17
2017-12-04T02:13:54.391Z,24.73
2017-12-04T02:16:21.887Z,25.67
2017-12-04T02:18:49.384Z,26.08
2017-12-04T02:21:16.924Z,26.98
2017-12-04T02:23:44.442Z,24.00
2017-12-04T02:26:12.720Z,26.65
2017-12-04T02:28:40.994Z,22.62
2017-12-04T02:31:09.259Z,24.15
2017-12-04T02:33:36.774Z,24.27
2017-12-04T02:36:04.292Z,23.55
2017-12-04T02:38:32.560Z,20.30
2017-12-04T02:41:00.847Z,22.97
2017-12-04T02:43:28.375Z,21.90
2017-12-04T02:45:55.895Z,18.62
2017-12-04T02:48:23.394Z,23.13
2017-12-04T02:50:50.896Z,22.05
2017-12-04T02:53:18.438Z,22.50
2017-12-04T02:55:46.717Z,21.33
2017-12-04T02:58:15.021Z,24.30
2017-12-04T03:00:42.521Z,23.17
2017-12-04T03:03:10.023Z,23.17
2017-12-04T03:05:37.520Z,21.73
2017-12-04T03:08:05.036Z,19.95
2017-12-04T03:10:33.474Z,20.00
2017-12-04T03:13:00.981Z,19.45
2017-12-04T03:15:29.255Z,19.85
2017-12-04T03:17:56.779Z,21.90
2017-12-04T03:20:24.304Z,24.33
2017-12-04T03:22:51.811Z,20.65
2017-12-04T03:25:19.324Z,21.08
2017-12-04T03:27:46.819Z,19.55
2017-12-04T03:30:14.336Z,19.65
2017-12-04T03:32:41.822Z,22.60
2017-12-04T03:35:09.319Z,20.37
2017-12-04T03:37:37.587Z,22.23
2017-12-04T03:40:05.867Z,19.85
2017-12-04T03:42:34.136Z,20.15
2017-12-04T03:45:01.644Z,20.37
2017-12-04T03:47:29.171Z,15.18
2017-12-04T03:49:57.446Z,19.80
2017-12-04T03:52:25.732Z,21.58
2017-12-04T03:54:53.245Z,18.65
2017-12-04T03:57:20.755Z,18.45
2017-12-04T03:59:48.343Z,19.23
2017-12-04T04:02:15.843Z,16.65
2017-12-04T04:04:43.343Z,17.00
2017-12-04T04:07:10.868Z,15.43
2017-12-04T04:09:38.396Z,16.27
2017-12-04T04:12:05.911Z,14.35
2017-12-04T04:14:33.426Z,17.23
2017-12-04T04:17:01.347Z,17.62
2017-12-04T04:19:28.847Z,16.58
2017-12-04T04:21:56.346Z,12.23
2017-12-04T04:24:24.647Z,13.70
2017-12-04T04:26:52.151Z,14.23
2017-12-04T04:29:19.684Z,14.93
2017-12-04T04:45:01.562Z,12.40
2017-12-04T04:47:29.081Z,11.75
2017-12-04T04:49:56.607Z,12.27
2017-12-04T04:52:24.127Z,13.07
2017-12-04T04:54:51.636Z,9.50
2017-12-04T04:57:19.171Z,9.65
2017-12-04T04:59:46.747Z,11.00
2017-12-04T05:02:14.335Z,9.30
2017-12-04T05:04:42.653Z,11.07
2017-12-04T05:07:10.174Z,11.40
2017-12-04T05:09:37.699Z,10.52
2017-12-04T05:12:05.210Z,11.23
2017-12-04T05:14:32.710Z,11.80
2017-12-04T05:17:00.243Z,13.07
2017-12-04T05:19:27.753Z,11.50
2017-12-04T05:21:55.363Z,9.70
2017-12-04T05:24:23.018Z,10.23
2017-12-04T05:26:50.531Z,11.15
2017-12-04T05:29:18.030Z,8.73
2017-12-04T05:31:45.561Z,9.18
2017-12-04T05:34:13.168Z,9.88
2017-12-04T05:36:40.703Z,10.38
2017-12-04T05:39:08.324Z,7.32
2017-12-04T05:41:35.842Z,9.70
2017-12-04T05:44:03.343Z,8.27
2017-12-04T05:46:30.858Z,9.50
2017-12-04T05:48:58.359Z,7.45
2017-12-04T05:51:25.874Z,8.40
2017-12-04T05:53:53.393Z,9.55
2017-12-04T05:56:20.902Z,8.40
2017-12-04T05:58:48.407Z,8.82
2017-12-04T06:01:15.939Z,8.57
2017-12-04T06:03:43.468Z,8.48
2017-12-04T06:06:10.980Z,8.20
2017-12-04T06:08:38.502Z,7.70
2017-12-04T06:11:05.998Z,7.40
2017-12-04T06:13:33.570Z,7.82
2017-12-04T06:16:01.105Z,6.78
2017-12-04T06:18:28.623Z,8.63
2017-12-04T06:20:56.172Z,6.93
2017-12-04T06:23:23.678Z,6.95
2017-12-04T06:25:51.200Z,6.82
2017-12-04T06:28:18.738Z,6.25
2017-12-04T06:30:46.272Z,6.68
2017-12-04T06:33:13.773Z,5.25
2017-12-04T06:35:41.409Z,4.97
2017-12-04T06:38:08.998Z,7.37
2017-12-04T06:40:36.542Z,5.45
2017-12-04T06:43:04.828Z,4.68
2017-12-04T06:45:33.099Z,5.30
2017-12-04T06:48:01.399Z,5.00
2017-12-04T06:50:28.924Z,5.97
2017-12-04T06:52:56.803Z,5.47
2017-12-04T06:55:24.324Z,4.85
2017-12-04T06:57:51.847Z,5.00
2017-12-04T07:00:19.356Z,5.22
2017-12-04T07:02:46.951Z,4.40
2017-12-04T07:05:15.213Z,5.20
2017-12-04T07:07:43.483Z,4.60
2017-12-04T07:10:11.777Z,5.43
2017-12-04T07:12:40.071Z,4.53
2017-12-04T07:15:07.581Z,4.62
2017-12-04T07:17:35.097Z,4.82
2017-12-04T07:20:02.582Z,4.90
2017-12-04T07:22:30.144Z,4.57
2017-12-04T07:25:00.955Z,4.37
2017-12-04T07:27:28.559Z,5.05
2017-12-04T07:29:56.084Z,5.07
2017-12-04T07:32:23.585Z,4.60
2017-12-04T07:34:51.086Z,4.30
2017-12-04T07:37:18.633Z,4.10
2017-12-04T07:39:46.184Z,4.33
2017-12-04T07:42:14.585Z,3.37
2017-12-04T07:44:42.102Z,4.47
2017-12-04T07:47:09.654Z,4.82
2017-12-04T07:49:37.208Z,3.92
2017-12-04T07:52:04.747Z,3.00
2017-12-04T07:54:32.271Z,4.60
2017-12-04T07:56:59.829Z,3.70
2017-12-04T07:59:27.356Z,4.70
2017-12-04T08:01:54.861Z,3.12
2017-12-04T08:04:22.368Z,4.30
2017-12-04T08:06:49.899Z,3.70
2017-12-04T08:09:17.403Z,4.22
2017-12-04T08:11:44.902Z,5.05
2017-12-04T08:14:12.423Z,3.90
2017-12-04T08:16:40.691Z,4.87
2017-12-04T08:19:08.203Z,4.78
2017-12-04T08:21:35.724Z,4.05
2017-12-04T08:24:03.349Z,3.78
2017-12-04T08:26:30.843Z,3.72
2017-12-04T08:28:58.413Z,3.37
2017-12-04T08:31:25.933Z,3.60
2017-12-04T08:33:53.461Z,4.28
2017-12-04T08:36:21.002Z,3.75
2017-12-04T08:38:48.504Z,4.20
2017-12-04T08:41:16.003Z,2.95
2017-12-04T08:43:43.544Z,4.00
2017-12-04T08:46:11.075Z,3.60
2017-12-04T08:48:38.643Z,5.03
2017-12-04T08:51:06.173Z,4.20
2017-12-04T08:53:33.692Z,5.20
2017-12-04T08:56:01.217Z,4.60
2017-12-04T08:58:28.733Z,5.80
2017-12-04T09:00:57.001Z,4.90
2017-12-04T09:03:25.271Z,4.40
2017-12-04T09:05:53.542Z,4.70
2017-12-04T09:08:22.146Z,5.30
2017-12-04T09:10:49.652Z,4.72
2017-12-04T09:13:17.170Z,4.30
2017-12-04T09:15:44.726Z,6.28
2017-12-04T09:18:12.243Z,4.40
2017-12-04T09:20:39.770Z,5.00
2017-12-04T09:23:07.427Z,3.63
2017-12-04T09:25:34.958Z,5.70
2017-12-04T09:28:02.464Z,3.72
2017-12-04T09:30:30.008Z,4.47
2017-12-04T09:32:57.526Z,3.12
2017-12-04T09:35:25.247Z,2.83
2017-12-04T09:37:52.748Z,2.70
2017-12-04T09:40:21.011Z,3.15
2017-12-04T09:42:49.322Z,3.22
2017-12-04T09:45:16.815Z,2.40
2017-12-04T09:47:44.324Z,1.58
2017-12-04T09:50:11.878Z,1.10
2017-12-04T09:52:40.147Z,1.30
2017-12-04T09:55:07.639Z,2.00
2017-12-04T09:57:35.159Z,1.10
2017-12-04T10:00:02.714Z,1.10
2017-12-04T10:02:30.238Z,1.90
2017-12-04T10:04:57.834Z,1.40
2017-12-04T10:07:25.354Z,1.70
2017-12-04T10:09:52.937Z,1.80
2017-12-04T10:12:20.476Z,1.60
2017-12-04T10:14:47.977Z,1.90
2017-12-04T10:17:15.505Z,1.37
2017-12-04T10:19:42.991Z,1.50
2017-12-04T10:22:10.572Z,1.87
2017-12-04T10:24:38.111Z,1.50
2017-12-04T10:27:05.646Z,2.00
2017-12-04T10:29:33.144Z,1.70
2017-12-04T10:32:00.649Z,2.10
2017-12-04T10:34:28.243Z,1.90
2017-12-04T10:36:55.772Z,1.87
2017-12-04T10:39:23.280Z,2.45
2017-12-04T10:41:50.812Z,2.50
2017-12-04T10:44:18.352Z,2.40
2017-12-04T10:46:45.860Z,3.00
2017-12-04T10:49:14.156Z,2.75
2017-12-04T10:51:42.433Z,2.55
2017-12-04T10:54:10.706Z,2.53
2017-12-04T10:56:39.023Z,2.70
2017-12-04T10:59:06.663Z,2.90
2017-12-04T11:01:34.304Z,2.20
2017-12-04T11:04:02.579Z,2.20
2017-12-04T11:06:30.885Z,1.98
2017-12-04T11:08:58.424Z,2.78
2017-12-04T11:11:25.977Z,2.50
2017-12-04T11:13:54.259Z,2.30
2017-12-04T11:16:21.782Z,2.72
2017-12-04T11:18:49.349Z,2.67
2017-12-04T11:21:16.979Z,2.80
2017-12-04T11:23:44.577Z,2.45
2017-12-04T11:26:12.051Z,2.12
2017-12-04T11:28:39.579Z,2.10
2017-12-04T11:31:07.110Z,2.47
2017-12-04T11:33:34.674Z,2.10
2017-12-04T11:36:02.175Z,1.80
2017-12-04T11:38:29.788Z,2.60
2017-12-04T11:40:57.350Z,2.15
2017-12-04T11:43:24.875Z,2.50
2017-12-04T11:45:52.380Z,1.70
2017-12-04T11:48:19.921Z,2.30
2017-12-04T11:50:47.506Z,2.40
2017-12-04T11:53:15.157Z,3.17
2017-12-04T11:55:42.722Z,1.98
2017-12-04T11:58:10.242Z,2.20
2017-12-04T12:00:37.737Z,2.60
2017-12-04T12:03:05.270Z,2.45
2017-12-04T12:05:33.542Z,2.62
2017-12-04T12:08:01.087Z,2.70
2017-12-04T12:10:28.591Z,2.90
2017-12-04T12:12:56.117Z,2.60
2017-12-04T12:15:24.572Z,2.60
2017-12-04T12:17:52.146Z,2.40
2017-12-04T12:20:19.656Z,2.58
2017-12-04T12:22:47.155Z,2.60
2017-12-04T12:25:14.685Z,2.35
2017-12-04T12:27:42.240Z,1.95
2017-12-04T12:30:09.811Z,2.67
2017-12-04T12:32:37.339Z,2.30
2017-12-04T12:35:04.858Z,2.30
2017-12-04T12:37:32.389Z,2.20
2017-12-04T12:39:59.904Z,2.90
2017-12-04T12:42:27.424Z,2.70
2017-12-04T12:44:54.937Z,2.95
2017-12-04T12:47:22.481Z,2.10
2017-12-04T12:49:50.028Z,2.37
2017-12-04T12:52:18.311Z,2.60
2017-12-04T12:54:46.604Z,2.67
2017-12-04T12:57:14.141Z,2.72
2017-12-04T12:59:41.830Z,2.90
2017-12-04T13:02:09.382Z,2.70
2017-12-04T13:04:36.915Z,3.00
2017-12-04T13:07:04.450Z,3.03
2017-12-04T13:09:32.289Z,3.45
2017-12-04T13:11:59.808Z,2.70
2017-12-04T13:14:28.106Z,2.30
2017-12-04T13:16:55.627Z,2.45
2017-12-04T13:19:24.112Z,2.60
2017-12-04T13:21:51.644Z,1.92
2017-12-04T13:24:19.140Z,3.05
2017-12-04T13:26:47.441Z,3.37
2017-12-04T13:29:14.940Z,2.50
2017-12-04T13:31:42.461Z,2.60
2017-12-04T13:34:21.951Z,3.10
2017-12-04T13:36:51.243Z,3.03
2017-12-04T13:39:19.056Z,2.50
2017-12-04T13:41:47.281Z,2.92
2017-12-04T13:44:15.278Z,2.85
2017-12-04T13:46:43.398Z,2.70
2017-12-04T13:49:10.946Z,3.58
2017-12-04T13:51:38.470Z,2.20
2017-12-04T13:54:06.857Z,2.70
2017-12-04T13:56:35.175Z,2.70
2017-12-04T13:59:02.827Z,3.80
2017-12-04T14:01:30.369Z,5.00
2017-12-04T14:03:58.111Z,3.58
2017-12-04T14:06:25.722Z,3.42
2017-12-04T14:08:53.243Z,2.97
2017-12-04T14:11:20.993Z,3.10
2017-12-04T14:13:48.508Z,2.97
2017-12-04T14:16:16.024Z,3.08
2017-12-04T14:18:44.296Z,3.10
2017-12-04T14:21:11.795Z,3.12
2017-12-04T14:23:39.324Z,3.00
2017-12-04T14:26:06.976Z,2.60
2017-12-04T14:28:34.508Z,2.78
2017-12-04T14:31:02.099Z,2.50
2017-12-04T14:33:29.650Z,2.47
2017-12-04T14:35:57.186Z,2.95
2017-12-04T14:38:24.696Z,2.45
2017-12-04T14:40:52.221Z,2.72
2017-12-04T14:43:19.747Z,2.30
2017-12-04T14:45:47.421Z,2.60
2017-12-04T14:48:14.997Z,2.40
2017-12-04T14:50:42.528Z,2.67
2017-12-04T14:53:10.046Z,2.92
2017-12-04T14:55:37.607Z,2.10
2017-12-04T14:58:05.935Z,2.40
2017-12-04T15:00:33.462Z,2.60
2017-12-04T15:03:00.979Z,2.40
2017-12-04T15:05:28.553Z,2.40
2017-12-04T15:07:56.056Z,2.03
2017-12-04T15:10:23.646Z,2.85
2017-12-04T15:12:51.137Z,2.37
2017-12-04T15:15:18.657Z,2.90
2017-12-04T15:17:46.197Z,2.35
2017-12-04T15:20:13.703Z,2.33
2017-12-04T15:22:41.228Z,2.70
2017-12-04T15:25:08.730Z,2.47
2017-12-04T15:27:37.027Z,2.78
2017-12-04T15:30:04.570Z,3.30
2017-12-04T15:32:32.849Z,3.05
2017-12-04T15:35:00.350Z,2.37
2017-12-04T15:37:27.853Z,2.72
2017-12-04T15:39:55.388Z,3.17
2017-12-04T15:42:22.916Z,2.47
2017-12-04T15:44:50.428Z,2.60
2017-12-04T15:47:17.974Z,3.70
2017-12-04T15:49:45.484Z,3.10
2017-12-04T15:52:13.014Z,3.90
2017-12-04T15:54:40.526Z,4.03
2017-12-04T15:57:08.011Z,4.87
2017-12-04T15:59:35.547Z,5.30
2017-12-04T16:02:03.050Z,4.18
2017-12-04T16:04:30.754Z,4.00
2017-12-04T16:06:58.239Z,3.33
2017-12-04T16:09:26.018Z,4.40
2017-12-04T16:11:53.846Z,4.05
2017-12-04T16:14:21.974Z,2.90
2017-12-04T16:16:49.607Z,2.83
2017-12-04T16:19:17.172Z,3.20
2017-12-04T16:21:44.743Z,3.30
2017-12-04T16:24:12.322Z,3.12
2017-12-04T16:26:39.837Z,2.50
2017-12-04T16:29:07.389Z,2.60
2017-12-04T16:31:35.143Z,2.80
2017-12-04T16:34:03.118Z,2.40
2017-12-04T16:36:30.681Z,3.40
2017-12-04T16:38:58.169Z,3.58
2017-12-04T16:41:27.488Z,3.62
2017-12-04T16:43:55.028Z,4.05
2017-12-04T16:46:22.556Z,3.42
2017-12-04T16:48:50.224Z,3.12
2017-12-04T16:51:17.743Z,3.25
2017-12-04T16:53:46.055Z,3.70
2017-12-04T16:56:17.123Z,3.60
2017-12-04T16:58:44.724Z,3.40
2017-12-04T17:01:12.231Z,3.42
2017-12-04T17:03:39.770Z,2.90
2017-12-04T17:06:07.302Z,3.22
2017-12-04T17:08:34.803Z,3.67
2017-12-04T17:11:02.458Z,3.33
2017-12-04T17:13:29.979Z,4.57
2017-12-04T17:15:58.278Z,3.72
2017-12-04T17:18:26.715Z,4.12
2017-12-04T17:20:54.251Z,3.85
2017-12-04T17:23:22.620Z,3.90
2017-12-04T17:25:50.706Z,4.45
2017-12-04T17:28:18.412Z,3.10
2017-12-04T17:30:47.029Z,3.55
2017-12-04T17:33:14.532Z,3.25
2017-12-04T17:35:42.132Z,4.03
2017-12-04T17:38:09.748Z,3.90
2017-12-04T17:40:37.285Z,3.53
2017-12-04T17:43:05.637Z,3.30
2017-12-04T17:45:33.176Z,3.30
2017-12-04T17:48:00.735Z,3.33
2017-12-04T17:50:29.012Z,2.85
2017-12-04T17:52:56.535Z,2.47
2017-12-04T17:55:24.071Z,2.80
2017-12-04T17:57:52.967Z,2.78
2017-12-04T18:00:20.476Z,2.58
2017-12-04T18:02:48.122Z,3.47
2017-12-04T18:05:15.749Z,3.40
2017-12-04T18:07:43.268Z,3.60
2017-12-04T18:10:11.647Z,3.05
2017-12-04T18:12:39.154Z,3.60
2017-12-04T18:15:06.670Z,3.50
2017-12-04T18:17:34.949Z,3.15
2017-12-04T18:20:03.224Z,2.87
2017-12-04T18:22:31.506Z,3.17
2017-12-04T18:24:59.772Z,3.50
2017-12-04T18:27:28.081Z,2.97
2017-12-04T18:29:56.380Z,3.22
2017-12-04T18:32:23.910Z,2.75
2017-12-04T18:34:51.529Z,2.87
2017-12-04T18:37:21.080Z,3.15
2017-12-04T18:39:48.725Z,4.60
2017-12-04T18:42:17.158Z,4.57
2017-12-04T18:44:44.670Z,3.70
2017-12-04T18:47:12.179Z,3.42
2017-12-04T18:49:39.717Z,3.60
2017-12-04T18:52:07.239Z,3.20
2017-12-04T18:54:34.802Z,3.53
2017-12-04T18:57:03.061Z,4.20
2017-12-04T18:59:30.568Z,3.33
2017-12-04T19:01:58.096Z,3.50
2017-12-04T19:04:25.611Z,4.28
2017-12-04T19:06:53.144Z,3.05
2017-12-04T19:09:20.670Z,2.75
2017-12-04T19:11:48.182Z,3.20
2017-12-04T19:14:15.829Z,3.53
2017-12-04T19:16:43.348Z,3.50
2017-12-04T19:19:10.861Z,3.30
2017-12-04T19:21:38.381Z,2.70
2017-12-04T19:24:05.932Z,2.80
2017-12-04T19:26:34.198Z,3.20
2017-12-04T19:29:01.723Z,3.50
2017-12-04T19:31:29.237Z,3.55
2017-12-04T19:33:56.757Z,3.20
2017-12-04T19:36:25.680Z,2.70
2017-12-04T19:38:55.388Z,3.22
2017-12-04T19:41:23.686Z,3.15
2017-12-04T19:43:51.212Z,2.62
2017-12-04T19:46:18.726Z,3.03
2017-12-04T19:48:46.245Z,4.00
2017-12-04T19:51:14.560Z,2.60
2017-12-04T19:53:42.095Z,3.50
2017-12-04T19:56:10.396Z,3.40
2017-12-04T19:58:37.923Z,3.10
2017-12-04T20:01:06.213Z,2.40
2017-12-04T20:03:33.740Z,2.60
2017-12-04T20:06:01.257Z,2.80
2017-12-04T20:08:28.763Z,3.30
2017-12-04T20:10:56.320Z,2.78
2017-12-04T20:13:23.915Z,2.60
2017-12-04T20:15:51.463Z,2.65
2017-12-04T20:18:18.987Z,2.70
2017-12-04T20:20:46.516Z,2.80
2017-12-04T20:23:14.122Z,2.77
2017-12-04T20:25:41.634Z,2.87
2017-12-04T20:28:09.155Z,3.10
2017-12-04T20:30:36.697Z,2.80
2017-12-04T20:33:04.219Z,3.40
2017-12-04T20:35:31.767Z,3.45
2017-12-04T20:37:59.291Z,3.08
2017-12-04T20:40:27.571Z,3.25
2017-12-04T20:42:55.879Z,2.83
2017-12-04T20:45:23.432Z,2.33
2017-12-04T20:47:50.970Z,3.53
2017-12-04T20:50:48.097Z,3.55
2017-12-04T20:53:16.416Z,2.75
2017-12-04T20:55:43.935Z,3.10
2017-12-04T20:58:13.022Z,3.30
2017-12-04T21:00:40.544Z,2.87
2017-12-04T21:03:08.158Z,2.90
2017-12-04T21:05:35.998Z,3.60
2017-12-04T21:08:16.661Z,3.30
2017-12-04T21:10:57.720Z,3.50
2017-12-04T21:13:37.129Z,3.60
2017-12-04T21:16:20.786Z,3.70
2017-12-04T21:18:51.573Z,3.10
2017-12-04T21:21:19.980Z,3.62
2017-12-04T21:23:47.520Z,3.50
2017-12-04T21:26:15.848Z,3.40
2017-12-04T21:28:43.352Z,3.45
2017-12-04T21:31:10.867Z,2.90
2017-12-04T21:33:38.385Z,3.20
2017-12-04T21:36:05.905Z,3.17
2017-12-04T21:38:34.339Z,2.80
2017-12-04T21:41:02.612Z,2.83
2017-12-04T21:43:30.134Z,3.60
2017-12-04T21:45:58.379Z,3.10
2017-12-04T21:48:25.917Z,3.60
2017-12-04T21:50:53.580Z,2.95
2017-12-04T21:53:21.083Z,3.20
2017-12-04T21:55:48.957Z,2.90
2017-12-04T21:58:16.470Z,4.37
2017-12-04T22:00:43.999Z,2.90
2017-12-04T22:03:11.529Z,3.37
2017-12-04T22:05:40.897Z,3.40
2017-12-04T22:08:08.572Z,3.20
2017-12-04T22:10:36.847Z,3.40
2017-12-04T22:13:04.361Z,3.20
2017-12-04T22:15:34.812Z,3.60
2017-12-04T22:18:02.905Z,2.90
2017-12-04T22:20:30.398Z,3.80
2017-12-04T22:22:57.913Z,3.67
2017-12-04T22:25:25.429Z,2.90
2017-12-04T22:27:52.937Z,2.97
2017-12-04T22:30:20.454Z,3.25
2017-12-04T22:32:47.969Z,3.20
2017-12-04T22:35:15.509Z,3.20
2017-12-04T22:37:43.018Z,3.55
2017-12-04T22:40:12.627Z,4.20
2017-12-04T22:42:40.125Z,3.40
2017-12-04T22:45:08.434Z,3.87
2017-12-04T22:47:35.982Z,2.90
2017-12-04T22:50:03.489Z,4.30
2017-12-04T22:52:31.008Z,3.53
2017-12-04T22:54:58.544Z,3.75
2017-12-04T22:57:26.051Z,4.32
2017-12-04T22:59:53.592Z,3.33
2017-12-04T23:02:21.151Z,4.97
2017-12-04T23:04:48.659Z,3.58
2017-12-04T23:07:16.928Z,3.85
2017-12-04T23:09:44.443Z,3.40
2017-12-04T23:12:11.977Z,3.30
2017-12-04T23:14:39.506Z,3.87
2017-12-04T23:17:07.014Z,3.25
2017-12-04T23:19:34.534Z,2.95
2017-12-04T23:22:02.060Z,3.95
2017-12-04T23:24:29.576Z,4.00
2017-12-04T23:26:57.106Z,3.65
2017-12-04T23:29:24.633Z,4.05
2017-12-04T23:31:52.183Z,3.55
2017-12-04T23:34:19.708Z,2.28
2017-12-04T23:36:47.234Z,3.60
2017-12-04T23:39:14.770Z,4.32
2017-12-04T23:41:42.293Z,3.07
2017-12-04T23:44:09.850Z,2.75
2017-12-04T23:46:37.355Z,3.47
2017-12-04T23:49:04.868Z,3.05
2017-12-04T23:51:32.351Z,3.70
2017-12-04T23:53:59.863Z,3.60
2017-12-04T23:56:28.187Z,3.17
2017-12-04T23:58:55.705Z,3.47
